Youngstown, OH

05:42 AM EST die 19o December, anno 2014 (GMT -0500)
West Side | Change Station
CLOSE
Current Station
Personal Weather Stations
Location: Youngstown, OH
Elevation: 1010 ft
Nearby Weather Stations
Active Advisory: Winter Weather Advisory

Elev 1010 ft 41.09 °N, 80.70 °W | Updated 2 seconds ago

Aequaliter Nubila
Aequaliter Nubila
30.7 °F
Feels Like 31 °F
N
2.7
Ventus Variabilis Ventus from Inter Aquilonem et Zephyrus
Gusts 5.8 mph

Hodie
High -- | Low -- °F
--% Chance of Precip.
Yesterday
High -- | Low -- °F
Precip. -- in
7:43 AM 4:56 PM
Waning Crescent, 8% visible
Pressio 30.13 in
Visibilitas 0.8 milia passuum
Clouds Plerumque Nubila 400 ft
Aequaliter Nubila 1300 ft
Frigus Venti 31 °F
Frigus in quo Ros apparet 18 °F
Umor 60%
Rainfall 0.00 in
Snow Depth Not available.
UV 0 out of 12
Pollen .10 out of 12
Air Quality Not available.
Flu Activity Not available.
SPECI KYNG 191032Z 30007KT 3/4SM -SN BR BKN004 OVC013 M02/M02 A3013 RMK AO2 P0001 T10171022

More Conditions Fewer Conditions

Pressio 30.13 in
Visibilitas 0.8 milia passuum
Clouds Plerumque Nubila 400 ft
Aequaliter Nubila 1300 ft
Frigus Venti 31 °F
Frigus in quo Ros apparet 18 °F
Umor 60%
Rainfall 0.00 in
Snow Depth Not available.
UV 0 out of 12
Pollen .10 out of 12
Air Quality Not available.
Flu Activity Not available.
SPECI KYNG 191032Z 30007KT 3/4SM -SN BR BKN004 OVC013 M02/M02 A3013 RMK AO2 P0001 T10171022

More Conditions Fewer Conditions

10-Day Weather Forecast

Almanac

Astronomy

Dec. 19, 2014 Rise Set
Actual Time
Civil Twilight
Nautical Twilight
Astronomical Twilight
Moon
Length Of Visible Light
Length of Day
Tomorrow will be .
, % of the Moon is Illuminated

Today's Extremes

State Highs State Lows

Community

WunderPhotos

Upload Photos

1,778,966 photos uploaded!

WunderBlogs® & News

Nearby

Air Quality

  Air Quality AQ Index Pollutant
Not available.

Snow Depth

Station Depth Elevation

Earthquake Activity

City Distance Mag. Time & Date
Minimum magnitude displayed is 2.5.

Coastal Water Temperatures

Locus Calor

Nearby Weather Stations